createdAt,value
2019-05-23T00:02:33.276Z,28.02
2019-05-23T00:05:13.751Z,22.65
2019-05-23T00:07:45.547Z,22.77
2019-05-23T00:10:36.715Z,21.90
2019-05-23T00:13:09.453Z,25.95
2019-05-23T00:15:42.563Z,24.20
2019-05-23T00:18:15.558Z,24.95
2019-05-23T00:20:47.570Z,20.05
2019-05-23T00:23:18.954Z,21.80
2019-05-23T00:25:51.427Z,21.62
2019-05-23T00:28:23.122Z,21.33
2019-05-23T00:30:59.354Z,20.05
2019-05-23T00:33:32.041Z,19.30
2019-05-23T00:36:03.399Z,19.32
2019-05-23T00:38:36.971Z,17.52
2019-05-23T00:41:10.183Z,19.23
2019-05-23T00:43:41.516Z,20.35
2019-05-23T00:46:15.139Z,19.90
2019-05-23T00:48:50.268Z,22.07
2019-05-23T00:51:23.595Z,23.02
2019-05-23T00:53:54.997Z,24.52
2019-05-23T00:56:26.463Z,25.30
2019-05-23T00:58:59.267Z,26.48
2019-05-23T01:01:32.105Z,27.42
2019-05-23T01:04:04.843Z,26.00
2019-05-23T01:06:40.485Z,26.12
2019-05-23T01:09:12.149Z,26.95
2019-05-23T01:11:44.711Z,25.70
2019-05-23T01:14:17.219Z,25.35
2019-05-23T01:16:48.586Z,21.27
2019-05-23T01:19:21.679Z,20.82
2019-05-23T01:22:04.093Z,22.55
2019-05-23T01:24:36.926Z,24.12
2019-05-23T01:27:09.136Z,19.45
2019-05-23T01:29:42.668Z,19.87
2019-05-23T01:32:19.678Z,23.10
2019-05-23T01:34:52.142Z,27.20
2019-05-23T01:37:23.229Z,20.30
2019-05-23T01:39:54.344Z,18.62
2019-05-23T01:42:26.112Z,19.62
2019-05-23T01:44:59.639Z,19.17
2019-05-23T01:47:31.041Z,19.67
2019-05-23T01:50:03.025Z,19.00
2019-05-23T01:52:36.504Z,19.82
2019-05-23T01:55:08.203Z,21.55
2019-05-23T01:57:41.585Z,17.60
2019-05-23T02:00:14.504Z,20.23
2019-05-23T02:02:46.285Z,14.65
2019-05-23T02:05:18.711Z,16.35
2019-05-23T02:07:51.571Z,16.82
2019-05-23T02:10:23.373Z,15.90
2019-05-23T02:12:54.491Z,13.78
2019-05-23T02:15:26.252Z,16.45
2019-05-23T02:17:59.635Z,15.28
2019-05-23T02:20:35.460Z,12.10
2019-05-23T02:23:06.279Z,15.10
2019-05-23T02:25:38.495Z,13.38
2019-05-23T02:28:11.059Z,15.75
2019-05-23T02:30:45.157Z,15.72
2019-05-23T02:33:16.349Z,15.08
2019-05-23T02:35:47.686Z,16.27
2019-05-23T02:38:27.531Z,15.23
2019-05-23T02:41:04.789Z,12.47
2019-05-23T02:43:38.983Z,13.72
2019-05-23T02:46:24.222Z,15.18
2019-05-23T02:48:57.418Z,13.75
2019-05-23T02:51:32.275Z,16.67
2019-05-23T02:54:05.619Z,16.12
2019-05-23T02:56:42.667Z,15.03
2019-05-23T02:59:46.793Z,16.00
2019-05-23T03:02:53.804Z,14.93
2019-05-23T03:05:26.506Z,16.07
2019-05-23T03:08:01.114Z,19.42
2019-05-23T03:10:50.337Z,15.83
2019-05-23T03:13:32.848Z,16.15
2019-05-23T03:16:06.070Z,15.72
2019-05-23T03:18:44.268Z,16.82
2019-05-23T03:21:20.724Z,18.07
2019-05-23T03:23:52.135Z,16.10
2019-05-23T03:26:36.365Z,16.12
2019-05-23T03:29:10.894Z,15.23
2019-05-23T03:31:46.236Z,14.85
2019-05-23T03:34:23.069Z,13.88
2019-05-23T03:36:55.549Z,12.93
2019-05-23T03:39:30.421Z,16.62
2019-05-23T03:42:03.231Z,16.17
2019-05-23T03:44:34.845Z,15.78
2019-05-23T03:47:10.288Z,15.25
2019-05-23T03:49:42.647Z,15.88
2019-05-23T03:52:15.845Z,15.32
2019-05-23T03:54:48.957Z,12.40
2019-05-23T03:57:25.368Z,15.18
2019-05-23T03:59:59.539Z,13.00
2019-05-23T04:02:31.880Z,15.58
2019-05-23T04:05:04.694Z,14.60
2019-05-23T04:07:40.263Z,16.52
2019-05-23T04:10:14.602Z,15.03
2019-05-23T04:12:46.003Z,16.32
2019-05-23T04:15:18.120Z,13.95
2019-05-23T04:17:50.811Z,16.93
2019-05-23T04:20:23.479Z,17.70
2019-05-23T04:22:54.841Z,17.90
2019-05-23T04:25:29.102Z,16.30
2019-05-23T04:28:11.842Z,17.80
2019-05-23T04:30:39.389Z,16.23
2019-05-23T04:33:16.831Z,15.13
2019-05-23T04:35:48.829Z,17.23
2019-05-23T04:38:21.513Z,15.90
2019-05-23T04:40:53.862Z,16.95
2019-05-23T04:43:32.395Z,17.50
2019-05-23T04:45:58.827Z,12.70
2019-05-23T04:48:30.157Z,16.30
2019-05-23T04:51:01.699Z,15.20
2019-05-23T04:53:34.155Z,13.05
2019-05-23T04:56:07.292Z,12.63
2019-05-23T04:58:38.940Z,12.18
2019-05-23T05:01:12.712Z,15.25
2019-05-23T05:03:46.435Z,12.55
2019-05-23T05:06:20.780Z,10.85
2019-05-23T05:08:52.548Z,13.40
2019-05-23T05:11:24.550Z,10.30
2019-05-23T05:13:55.795Z,10.95
2019-05-23T05:16:30.288Z,9.93
2019-05-23T05:19:05.507Z,9.53
2019-05-23T05:21:36.496Z,9.23
2019-05-23T05:24:07.547Z,9.38
2019-05-23T05:26:40.491Z,10.18
2019-05-23T05:29:12.285Z,10.43
2019-05-23T05:31:46.292Z,8.98
2019-05-23T05:34:23.136Z,10.28
2019-05-23T05:36:57.920Z,8.48
2019-05-23T05:39:32.532Z,10.00
2019-05-23T05:42:09.428Z,7.45
2019-05-23T05:47:17.088Z,6.65
2019-05-23T05:49:50.557Z,7.47
2019-05-23T05:52:21.900Z,10.18
2019-05-23T05:55:01.057Z,5.75
2019-05-23T05:57:33.590Z,6.92
2019-05-23T06:00:13.013Z,10.28
2019-05-23T06:03:02.617Z,7.10
2019-05-23T06:05:20.669Z,6.97
2019-05-23T06:07:59.793Z,7.60
2019-05-23T06:10:32.700Z,8.48
2019-05-23T06:13:05.093Z,6.40
2019-05-23T06:15:36.430Z,9.50
2019-05-23T06:18:07.519Z,9.78
2019-05-23T06:20:41.143Z,7.53
2019-05-23T06:23:12.996Z,9.50
2019-05-23T06:25:46.552Z,9.63
2019-05-23T06:28:21.406Z,8.58
2019-05-23T06:30:52.663Z,9.60
2019-05-23T06:33:26.290Z,7.62
2019-05-23T06:35:57.865Z,8.63
2019-05-23T06:38:30.385Z,10.30
2019-05-23T06:41:05.069Z,7.92
2019-05-23T06:43:39.647Z,7.53
2019-05-23T06:46:11.240Z,10.95
2019-05-23T06:48:45.733Z,9.85
2019-05-23T06:51:15.728Z,11.45
2019-05-23T06:53:47.781Z,8.58
2019-05-23T06:56:19.943Z,7.78
2019-05-23T06:58:51.075Z,8.98
2019-05-23T07:01:23.933Z,10.25
2019-05-23T07:03:56.455Z,11.30
2019-05-23T07:06:27.821Z,9.60
2019-05-23T07:08:59.349Z,11.83
2019-05-23T07:11:30.562Z,11.50
2019-05-23T07:14:01.679Z,14.30
2019-05-23T07:16:32.743Z,14.78
2019-05-23T07:19:03.801Z,10.82
2019-05-23T07:21:36.671Z,11.83
2019-05-23T07:24:09.347Z,11.25
2019-05-23T07:26:40.805Z,12.35
2019-05-23T07:29:13.869Z,11.38
2019-05-23T07:31:45.266Z,8.90
2019-05-23T07:34:16.815Z,7.22
2019-05-23T07:36:47.890Z,8.85
2019-05-23T07:39:19.586Z,9.88
2019-05-23T07:41:51.688Z,9.45
2019-05-23T07:44:22.797Z,8.95
2019-05-23T07:46:54.209Z,6.00
2019-05-23T07:49:25.477Z,9.45
2019-05-23T07:51:56.582Z,14.45
2019-05-23T07:54:32.255Z,8.15
2019-05-23T07:57:05.689Z,7.70
2019-05-23T07:59:39.209Z,6.28
2019-05-23T08:02:17.341Z,13.75
2019-05-23T08:04:50.429Z,18.98
2019-05-23T08:07:21.750Z,15.10
2019-05-23T08:09:52.815Z,8.90
2019-05-23T08:12:23.901Z,5.33
2019-05-23T08:14:58.833Z,7.33
2019-05-23T08:17:32.294Z,6.55
2019-05-23T08:20:03.582Z,7.75
2019-05-23T08:22:34.906Z,8.55
2019-05-23T08:25:07.265Z,5.20
2019-05-23T08:27:38.453Z,5.70
2019-05-23T08:30:12.971Z,6.00
2019-05-23T08:32:44.717Z,4.10
2019-05-23T08:35:18.089Z,7.47
2019-05-23T08:37:49.464Z,6.10
2019-05-23T08:40:23.694Z,7.17
2019-05-23T08:42:56.490Z,7.85
2019-05-23T08:45:28.944Z,5.85
2019-05-23T08:48:00.358Z,6.37
2019-05-23T08:50:33.336Z,5.12
2019-05-23T08:53:04.651Z,8.85
2019-05-23T08:55:37.480Z,4.97
2019-05-23T08:58:11.721Z,5.22
2019-05-23T09:00:45.669Z,5.95
2019-05-23T09:03:21.628Z,4.25
2019-05-23T09:05:54.739Z,8.75
2019-05-23T09:08:27.777Z,5.53
2019-05-23T09:10:59.040Z,6.70
2019-05-23T09:13:31.165Z,6.97
2019-05-23T09:16:02.973Z,5.65
2019-05-23T09:18:34.211Z,8.98
2019-05-23T09:21:07.401Z,7.28
2019-05-23T09:23:40.568Z,6.83
2019-05-23T09:26:12.050Z,6.45
2019-05-23T09:28:46.739Z,11.15
2019-05-23T09:31:19.121Z,7.55
2019-05-23T09:33:53.112Z,9.25
2019-05-23T09:36:24.912Z,10.53
2019-05-23T09:38:56.224Z,8.65
2019-05-23T09:41:29.219Z,7.95
2019-05-23T09:44:00.370Z,11.40
2019-05-23T09:46:32.525Z,4.78
2019-05-23T09:49:04.074Z,9.40
2019-05-23T09:51:35.294Z,8.03
2019-05-23T09:54:06.416Z,10.38
2019-05-23T09:56:39.816Z,7.50
2019-05-23T09:59:12.751Z,9.45
2019-05-23T10:01:44.814Z,7.28
2019-05-23T10:04:16.063Z,11.08
2019-05-23T10:06:47.189Z,11.15
2019-05-23T10:09:20.301Z,6.78
2019-05-23T10:11:52.144Z,8.45
2019-05-23T10:14:27.773Z,12.13
2019-05-23T10:16:59.990Z,10.28
2019-05-23T10:19:34.303Z,6.50
2019-05-23T10:22:07.190Z,8.98
2019-05-23T10:24:38.367Z,9.50
2019-05-23T10:27:11.337Z,8.40
2019-05-23T10:29:44.221Z,9.65
2019-05-23T10:32:19.365Z,11.25
2019-05-23T10:35:00.179Z,8.40
2019-05-23T10:37:35.107Z,15.38
2019-05-23T10:40:14.656Z,13.75
2019-05-23T10:42:50.929Z,7.62
2019-05-23T10:45:26.086Z,6.25
2019-05-23T10:47:59.215Z,7.10
2019-05-23T10:50:44.800Z,8.43
2019-05-23T10:53:11.723Z,10.23
2019-05-23T10:55:43.081Z,9.88
2019-05-23T10:58:16.725Z,6.15
2019-05-23T11:00:50.938Z,7.05
2019-05-23T11:03:28.106Z,6.17
2019-05-23T11:06:13.335Z,7.58
2019-05-23T11:08:38.330Z,9.85
2019-05-23T11:11:20.248Z,6.10
2019-05-23T11:13:51.677Z,7.45
2019-05-23T11:16:32.101Z,9.83
2019-05-23T11:19:02.860Z,8.23
2019-05-23T11:27:24.122Z,5.90
2019-05-23T11:35:47.250Z,11.22
2019-05-23T11:41:54.287Z,6.65
2019-05-23T11:50:09.650Z,14.00
2019-05-23T11:55:51.155Z,8.15
2019-05-23T12:07:21.022Z,8.88
2019-05-23T12:23:50.245Z,10.23
2019-05-23T12:35:09.600Z,9.60
2019-05-23T12:35:49.175Z,9.08
2019-05-23T12:43:15.265Z,8.08
2019-05-23T13:03:22.653Z,7.72
2019-05-23T13:05:56.581Z,11.08
2019-05-23T13:11:08.394Z,9.10
2019-05-23T13:15:32.398Z,9.00
2019-05-23T13:17:19.301Z,9.93
2019-05-23T13:19:46.314Z,6.58
2019-05-23T13:26:40.911Z,7.47
2019-05-23T13:49:14.398Z,7.12
2019-05-23T13:50:21.602Z,8.48
2019-05-23T14:08:13.112Z,9.20
2019-05-23T14:09:22.426Z,7.70
2019-05-23T14:21:30.765Z,8.25
2019-05-23T14:29:25.049Z,3.92
2019-05-23T14:32:00.812Z,9.93
2019-05-23T14:34:13.312Z,5.17
2019-05-23T14:36:46.278Z,6.62
2019-05-23T14:42:22.510Z,5.17
2019-05-23T14:44:53.622Z,10.10
2019-05-23T14:47:35.041Z,7.70
2019-05-23T14:53:08.964Z,7.60
2019-05-23T14:55:47.451Z,6.90
2019-05-23T14:58:26.925Z,8.08
2019-05-23T15:01:07.805Z,6.30
2019-05-23T15:03:40.677Z,7.35
2019-05-23T17:27:43.568Z,4.17
2019-05-23T17:34:39.498Z,4.80
2019-05-23T18:08:09.609Z,3.10
2019-05-23T18:14:24.154Z,6.35
2019-05-23T18:16:57.881Z,3.70
2019-05-23T18:22:24.260Z,5.17
2019-05-23T18:25:01.936Z,3.27
2019-05-23T18:27:50.705Z,5.92
2019-05-23T18:30:52.250Z,4.45
2019-05-23T18:33:36.329Z,3.90
2019-05-23T18:36:16.259Z,16.70
2019-05-23T18:39:16.914Z,6.35
2019-05-23T18:41:30.217Z,6.80
2019-05-23T18:44:12.448Z,3.45
2019-05-23T18:46:45.819Z,6.20
2019-05-23T18:49:26.469Z,5.87
2019-05-23T18:52:03.886Z,4.97
2019-05-23T18:57:40.272Z,5.92
2019-05-23T19:00:18.011Z,4.60
2019-05-23T19:18:00.546Z,4.80
2019-05-23T19:20:33.655Z,6.05
2019-05-23T19:26:48.859Z,5.33
2019-05-23T19:29:27.655Z,6.90
2019-05-23T19:31:59.890Z,8.95
2019-05-23T19:34:34.708Z,6.17
2019-05-23T19:37:08.099Z,5.67
2019-05-23T19:43:15.216Z,5.37
2019-05-23T19:45:49.203Z,5.95
2019-05-23T19:48:22.335Z,6.30
2019-05-23T19:50:55.206Z,5.55
2019-05-23T19:53:28.685Z,6.30
2019-05-23T19:56:00.275Z,8.70
2019-05-23T19:58:31.866Z,6.33
2019-05-23T20:01:04.058Z,7.50
2019-05-23T20:03:35.901Z,8.45
2019-05-23T20:06:09.879Z,6.67
2019-05-23T20:08:46.986Z,6.95
2019-05-23T20:11:22.168Z,6.85
2019-05-23T20:13:54.237Z,9.05
2019-05-23T20:16:27.291Z,10.82
2019-05-23T20:19:00.702Z,8.73
2019-05-23T20:21:45.011Z,10.80
2019-05-23T20:24:18.944Z,8.33
2019-05-23T20:26:53.510Z,9.28
2019-05-23T20:29:24.949Z,8.20
2019-05-23T20:31:58.074Z,8.95
2019-05-23T20:34:32.339Z,8.50
2019-05-23T20:37:08.164Z,9.10
2019-05-23T20:39:40.199Z,8.68
2019-05-23T20:42:12.355Z,9.33
2019-05-23T20:44:46.812Z,9.85
2019-05-23T20:47:21.208Z,13.25
2019-05-23T20:49:54.374Z,11.75
2019-05-23T20:52:32.112Z,9.33
2019-05-23T20:55:08.793Z,9.15
2019-05-23T20:57:45.032Z,13.88
2019-05-23T21:00:26.425Z,11.08
2019-05-23T21:03:02.871Z,10.63
2019-05-23T21:05:35.232Z,11.12
2019-05-23T21:08:08.209Z,12.37
2019-05-23T21:10:45.229Z,11.93
2019-05-23T21:13:21.485Z,11.18
2019-05-23T21:15:53.407Z,15.38
2019-05-23T21:19:17.993Z,11.70
2019-05-23T21:21:14.892Z,11.20
2019-05-23T21:23:57.148Z,13.78
2019-05-23T21:26:31.375Z,13.98
2019-05-23T21:29:04.631Z,13.75
2019-05-23T21:31:36.245Z,13.55
2019-05-23T21:34:07.498Z,12.10
2019-05-23T21:36:38.692Z,12.70
2019-05-23T21:39:11.533Z,16.62
2019-05-23T21:41:42.857Z,11.68
2019-05-23T21:44:13.975Z,12.33
2019-05-23T21:46:45.406Z,11.63
2019-05-23T21:52:15.911Z,14.05
2019-05-23T21:55:26.668Z,12.10
2019-05-23T21:57:28.504Z,11.85
2019-05-23T22:00:01.203Z,14.68
2019-05-23T22:02:33.967Z,11.28
2019-05-23T22:05:08.984Z,11.95
2019-05-23T22:07:41.682Z,13.18
2019-05-23T22:10:14.112Z,12.75
2019-05-23T22:12:46.473Z,9.78
2019-05-23T22:15:22.329Z,12.30
2019-05-23T22:17:53.495Z,10.80
2019-05-23T22:20:24.683Z,9.23
2019-05-23T22:22:57.831Z,10.90
2019-05-23T22:25:34.296Z,14.78
2019-05-23T22:28:11.692Z,11.03
2019-05-23T22:30:44.343Z,9.60
2019-05-23T22:33:18.531Z,13.88
2019-05-23T22:35:52.375Z,10.20
2019-05-23T22:38:27.902Z,12.30
2019-05-23T22:41:00.875Z,11.78
2019-05-23T22:43:32.078Z,10.38
2019-05-23T22:46:06.350Z,12.05
2019-05-23T22:48:38.475Z,11.18
2019-05-23T22:51:09.727Z,13.78
2019-05-23T22:53:43.439Z,12.37
2019-05-23T22:56:15.532Z,11.53
2019-05-23T22:58:48.904Z,10.35
2019-05-23T23:01:27.572Z,10.93
2019-05-23T23:03:57.944Z,8.33
2019-05-23T23:06:31.662Z,9.75
2019-05-23T23:09:06.547Z,10.98
2019-05-23T23:11:38.716Z,10.10
2019-05-23T23:14:11.687Z,12.03
2019-05-23T23:16:53.553Z,9.23
2019-05-23T23:19:31.595Z,9.85
2019-05-23T23:22:04.396Z,12.10
2019-05-23T23:24:36.675Z,8.98
2019-05-23T23:27:09.148Z,10.03
2019-05-23T23:29:41.865Z,10.93
2019-05-23T23:32:13.062Z,12.88
2019-05-23T23:34:44.205Z,9.13
2019-05-23T23:37:15.296Z,10.43
2019-05-23T23:39:46.600Z,10.17
2019-05-23T23:42:19.336Z,11.20
2019-05-23T23:45:17.799Z,9.15
2019-05-23T23:47:46.147Z,11.28
2019-05-23T23:50:36.563Z,9.83
2019-05-23T23:53:25.819Z,9.23
2019-05-23T23:56:17.756Z,10.35
2019-05-23T23:58:48.351Z,10.03
